Time,TemperatureF,DewpointF,PressureIn,WindDirection,WindDirectionDegrees,WindSpeedMPH,WindSpeedGustMPH,Humidity,HourlyPrecipIn,Conditions,Clouds,dailyrainin,SoftwareType,DateUTC
2013-03-10 00:05:00,26.0,18.0,25.25,NNW,346,14.0,14.0,72,0.00,,,0.00,weatherlink.com 1.10,2013-03-10 07:05:00,
2013-03-10 00:20:00,25.7,18.0,25.26,North,352,8.0,14.0,73,0.00,,,0.00,weatherlink.com 1.10,2013-03-10 07:20:00,
2013-03-10 00:35:00,25.4,18.0,25.26,North,352,7.0,14.0,74,0.00,,,0.00,weatherlink.com 1.10,2013-03-10 07:35:00,
2013-03-10 00:50:00,25.0,18.0,25.26,NNW,344,4.0,8.0,75,0.00,,,0.00,weatherlink.com 1.10,2013-03-10 07:50:00,
2013-03-10 01:05:00,24.5,18.0,25.26,NNW,330,5.0,7.0,76,0.00,,,0.00,weatherlink.com 1.10,2013-03-10 08:05:00,
2013-03-10 01:20:00,25.0,21.0,25.27,NNW,335,6.0,9.0,83,0.00,,,0.00,weatherlink.com 1.10,2013-03-10 08:20:00,
2013-03-10 01:35:00,25.9,22.0,25.27,North,356,9.0,19.0,86,0.00,,,0.00,weatherlink.com 1.10,2013-03-10 08:35:00,
2013-03-10 01:50:00,25.7,22.0,25.27,NNW,347,10.0,19.0,86,0.00,,,0.00,weatherlink.com 1.10,2013-03-10 08:50:00,
2013-03-10 03:05:00,25.7,22.0,25.27,North,356,12.0,14.0,85,0.00,,,0.00,weatherlink.com 1.10,2013-03-10 09:05:00,
2013-03-10 03:20:00,26.0,21.0,25.27,North,350,12.0,18.0,82,0.00,,,0.00,weatherlink.com 1.10,2013-03-10 09:20:00,
2013-03-10 03:35:00,25.8,21.0,25.26,NNW,332,10.0,17.0,81,0.00,,,0.00,weatherlink.com 1.10,2013-03-10 09:35:00,
2013-03-10 03:50:00,25.7,20.0,25.26,NE,40,16.0,21.0,80,0.00,,,0.00,weatherlink.com 1.10,2013-03-10 09:50:00,
2013-03-10 04:05:00,25.5,20.0,25.26,NNW,348,13.0,24.0,79,0.00,,,0.00,weatherlink.com 1.10,2013-03-10 10:05:00,
2013-03-10 04:20:00,25.1,19.0,25.26,NNW,336,16.0,24.0,78,0.00,,,0.00,weatherlink.com 1.10,2013-03-10 10:20:00,
2013-03-10 04:35:00,24.5,16.0,25.27,NNW,338,16.0,27.0,69,0.00,,,0.00,weatherlink.com 1.10,2013-03-10 10:35:00,
2013-03-10 04:50:00,24.2,12.0,25.27,NNW,344,22.0,23.0,61,0.00,,,0.00,weatherlink.com 1.10,2013-03-10 10:50:00,
2013-03-10 05:05:00,24.1,12.0,25.27,NNW,338,21.0,27.0,59,0.00,,,0.00,weatherlink.com 1.10,2013-03-10 11:05:00,
2013-03-10 05:20:00,23.7,11.0,25.27,NNW,333,13.0,26.0,59,0.00,,,0.00,weatherlink.com 1.10,2013-03-10 11:20:00,
2013-03-10 05:35:00,23.3,12.0,25.28,NW,326,17.0,28.0,62,0.00,,,0.00,weatherlink.com 1.10,2013-03-10 11:35:00,
2013-03-10 05:50:00,23.1,13.0,25.28,NNW,338,13.0,30.0,64,0.00,,,0.00,weatherlink.com 1.10,2013-03-10 11:50:00,
2013-03-10 06:05:00,22.8,13.0,25.28,North,4,17.0,29.0,66,0.00,,,0.00,weatherlink.com 1.10,2013-03-10 12:05:00,
2013-03-10 06:20:00,22.3,12.0,25.28,NNW,327,12.0,26.0,66,0.00,,,0.00,weatherlink.com 1.10,2013-03-10 12:20:00,
2013-03-10 06:36:00,21.8,12.0,25.29,NNW,343,11.0,27.0,66,0.00,,,0.00,weatherlink.com 1.10,2013-03-10 12:36:00,
2013-03-10 06:51:00,21.1,11.0,25.29,North,358,15.0,22.0,66,0.00,,,0.00,weatherlink.com 1.10,2013-03-10 12:51:00,
2013-03-10 07:06:00,20.5,10.0,25.30,NNW,335,10.0,19.0,65,0.00,,,0.00,weatherlink.com 1.10,2013-03-10 13:06:00,
2013-03-10 07:21:00,20.0,10.0,25.30,North,349,11.0,16.0,66,0.00,,,0.00,weatherlink.com 1.10,2013-03-10 13:21:00,
2013-03-10 07:36:00,19.9,10.0,25.30,NNE,18,12.0,18.0,66,0.00,,,0.00,weatherlink.com 1.10,2013-03-10 13:36:00,
2013-03-10 07:51:00,20.1,11.0,25.30,NNE,15,7.0,17.0,67,0.00,,,0.00,weatherlink.com 1.10,2013-03-10 13:51:00,
2013-03-10 08:06:00,20.8,12.0,25.30,NNW,340,9.0,16.0,68,0.00,,,0.00,weatherlink.com 1.10,2013-03-10 14:06:00,
2013-03-10 08:21:00,21.7,13.0,25.30,NNW,341,9.0,19.0,69,0.00,,,0.00,weatherlink.com 1.10,2013-03-10 14:21:00,
2013-03-10 08:36:00,23.1,15.0,25.30,North,352,8.0,16.0,70,0.00,,,0.00,weatherlink.com 1.10,2013-03-10 14:36:00,
2013-03-10 08:51:00,23.4,15.0,25.30,NNW,338,18.0,26.0,70,0.00,,,0.00,weatherlink.com 1.10,2013-03-10 14:51:00,
2013-03-10 09:06:00,23.8,16.0,25.30,NNE,25,13.0,25.0,71,0.00,,,0.00,weatherlink.com 1.10,2013-03-10 15:06:00,
2013-03-10 09:21:00,24.8,16.0,25.31,North,351,17.0,25.0,68,0.00,,,0.00,weatherlink.com 1.10,2013-03-10 15:21:00,
2013-03-10 09:36:00,25.4,16.0,25.32,North,354,19.0,23.0,68,0.00,,,0.00,weatherlink.com 1.10,2013-03-10 15:36:00,
2013-03-10 09:51:00,25.7,15.0,25.32,NNW,332,16.0,22.0,64,0.00,,,0.00,weatherlink.com 1.10,2013-03-10 15:51:00,
2013-03-10 10:06:00,25.8,14.0,25.32,North,8,16.0,28.0,61,0.00,,,0.00,weatherlink.com 1.10,2013-03-10 16:06:00,
2013-03-10 10:21:00,26.5,14.0,25.32,NNW,347,18.0,27.0,59,0.00,,,0.00,weatherlink.com 1.10,2013-03-10 16:21:00,
2013-03-10 10:36:00,27.7,14.0,25.32,North,351,18.0,27.0,56,0.00,,,0.00,weatherlink.com 1.10,2013-03-10 16:36:00,
2013-03-10 10:51:00,27.4,13.0,25.31,NNW,336,17.0,27.0,55,0.00,,,0.00,weatherlink.com 1.10,2013-03-10 16:51:00,
2013-03-10 11:06:00,28.8,14.0,25.30,NNW,341,21.0,28.0,55,0.00,,,0.00,weatherlink.com 1.10,2013-03-10 17:06:00,
2013-03-10 11:21:00,29.3,12.0,25.30,NNW,335,20.0,30.0,49,0.00,,,0.00,weatherlink.com 1.10,2013-03-10 17:21:00,
2013-03-10 11:36:00,30.5,12.0,25.30,NE,40,22.0,29.0,47,0.00,,,0.00,weatherlink.com 1.10,2013-03-10 17:36:00,
2013-03-10 11:51:00,31.0,13.0,25.30,North,359,22.0,25.0,47,0.00,,,0.00,weatherlink.com 1.10,2013-03-10 17:51:00,
2013-03-10 12:06:00,32.2,12.0,25.30,NNW,347,15.0,23.0,44,0.00,,,0.00,weatherlink.com 1.10,2013-03-10 18:06:00,
2013-03-10 12:21:00,32.8,12.0,25.30,NNE,15,12.0,27.0,42,0.00,,,0.00,weatherlink.com 1.10,2013-03-10 18:21:00,
2013-03-10 12:36:00,33.1,10.0,25.30,NNE,33,16.0,27.0,38,0.00,,,0.00,weatherlink.com 1.10,2013-03-10 18:36:00,
2013-03-10 12:51:00,34.2,12.0,25.30,NE,34,16.0,25.0,40,0.00,,,0.00,weatherlink.com 1.10,2013-03-10 18:51:00,
2013-03-10 13:06:00,34.4,11.0,25.30,NE,44,13.0,29.0,38,0.00,,,0.00,weatherlink.com 1.10,2013-03-10 19:06:00,
2013-03-10 13:21:00,35.1,11.0,25.30,NNE,16,18.0,27.0,37,0.00,,,0.00,weatherlink.com 1.10,2013-03-10 19:21:00,
2013-03-10 13:36:00,35.6,11.0,25.29,NNE,30,18.0,22.0,36,0.00,,,0.00,weatherlink.com 1.10,2013-03-10 19:36:00,
2013-03-10 13:52:00,36.2,10.0,25.28,NE,46,12.0,22.0,33,0.00,,,0.00,weatherlink.com 1.10,2013-03-10 19:52:00,
2013-03-10 14:06:00,37.0,10.0,25.28,NNW,332,16.0,23.0,32,0.00,,,0.00,weatherlink.com 1.10,2013-03-10 20:06:00,
2013-03-10 14:22:00,36.9,9.0,25.27,NNW,327,15.0,27.0,31,0.00,,,0.00,weatherlink.com 1.10,2013-03-10 20:22:00,
2013-03-10 14:37:00,38.3,8.0,25.26,North,8,21.0,21.0,29,0.00,,,0.00,weatherlink.com 1.10,2013-03-10 20:37:00,
2013-03-10 14:52:00,38.2,8.0,25.26,NNE,30,12.0,19.0,29,0.00,,,0.00,weatherlink.com 1.10,2013-03-10 20:52:00,
2013-03-10 15:22:00,39.6,10.0,25.26,North,7,17.0,18.0,29,0.00,,,0.00,weatherlink.com 1.10,2013-03-10 21:22:00,
2013-03-10 15:37:00,39.0,8.0,25.26,NE,40,12.0,22.0,28,0.00,,,0.00,weatherlink.com 1.10,2013-03-10 21:37:00,
2013-03-10 15:52:00,39.4,9.0,25.26,NNW,340,11.0,20.0,29,0.00,,,0.00,weatherlink.com 1.10,2013-03-10 21:52:00,
2013-03-10 16:07:00,39.3,9.0,25.26,NE,34,12.0,17.0,29,0.00,,,0.00,weatherlink.com 1.10,2013-03-10 22:07:00,
2013-03-10 16:22:00,39.9,10.0,25.26,NNW,340,9.0,18.0,29,0.00,,,0.00,weatherlink.com 1.10,2013-03-10 22:22:00,
2013-03-10 16:37:00,40.2,10.0,25.25,NNE,29,15.0,16.0,29,0.00,,,0.00,weatherlink.com 1.10,2013-03-10 22:37:00,
2013-03-10 16:52:00,40.6,10.0,25.25,NE,39,9.0,18.0,28,0.00,,,0.00,weatherlink.com 1.10,2013-03-10 22:52:00,
2013-03-10 17:07:00,40.5,10.0,25.24,ENE,68,12.0,16.0,28,0.00,,,0.00,weatherlink.com 1.10,2013-03-10 23:07:00,
2013-03-10 17:22:00,40.9,10.0,25.24,NNE,33,13.0,16.0,28,0.00,,,0.00,weatherlink.com 1.10,2013-03-10 23:22:00,
2013-03-10 17:37:00,40.4,10.0,25.24,North,349,7.0,14.0,29,0.00,,,0.00,weatherlink.com 1.10,2013-03-10 23:37:00,
2013-03-10 17:52:00,40.5,10.0,25.24,NE,36,8.0,13.0,29,0.00,,,0.00,weatherlink.com 1.10,2013-03-10 23:52:00,
2013-03-10 18:37:00,38.7,11.0,25.23,NNW,335,3.0,8.0,32,0.00,,,0.00,weatherlink.com 1.10,2013-03-11 00:37:00,
2013-03-10 18:52:00,36.9,12.0,25.23,NW,326,3.0,4.0,36,0.00,,,0.00,weatherlink.com 1.10,2013-03-11 00:52:00,
2013-03-10 19:07:00,35.6,12.0,25.23,NNW,335,0.0,3.0,38,0.00,,,0.00,weatherlink.com 1.10,2013-03-11 01:07:00,
2013-03-10 19:22:00,35.3,12.0,25.23,WNW,290,1.0,2.0,39,0.00,,,0.00,weatherlink.com 1.10,2013-03-11 01:22:00,
2013-03-10 19:38:00,34.6,12.0,25.24,West,263,4.0,6.0,40,0.00,,,0.00,weatherlink.com 1.10,2013-03-11 01:38:00,
2013-03-10 19:52:00,33.8,13.0,25.24,West,267,2.0,6.0,43,0.00,,,0.00,weatherlink.com 1.10,2013-03-11 01:52:00,
2013-03-10 20:07:00,33.5,14.0,25.24,WNW,284,5.0,8.0,45,0.00,,,0.00,weatherlink.com 1.10,2013-03-11 02:07:00,
2013-03-10 20:22:00,32.3,15.0,25.23,West,273,1.0,5.0,49,0.00,,,0.00,weatherlink.com 1.10,2013-03-11 02:22:00,
2013-03-10 20:37:00,31.9,15.0,25.23,SW,216,0.0,3.0,51,0.00,,,0.00,weatherlink.com 1.10,2013-03-11 02:37:00,
2013-03-10 20:52:00,31.2,16.0,25.22,West,274,0.0,1.0,53,0.00,,,0.00,weatherlink.com 1.10,2013-03-11 02:52:00,
2013-03-10 21:07:00,30.0,16.0,25.23,WNW,291,5.0,7.0,57,0.00,,,0.00,weatherlink.com 1.10,2013-03-11 03:07:00,
2013-03-10 21:22:00,31.3,16.0,25.22,WSW,251,2.0,3.0,54,0.00,,,0.00,weatherlink.com 1.10,2013-03-11 03:22:00,
2013-03-10 21:37:00,31.7,17.0,25.22,West,273,5.0,7.0,54,0.00,,,0.00,weatherlink.com 1.10,2013-03-11 03:37:00,
2013-03-10 21:52:00,31.6,17.0,25.23,WNW,293,4.0,11.0,54,0.00,,,0.00,weatherlink.com 1.10,2013-03-11 03:52:00,
2013-03-10 22:07:00,30.3,17.0,25.23,West,271,5.0,10.0,57,0.00,,,0.00,weatherlink.com 1.10,2013-03-11 04:07:00,
2013-03-10 22:22:00,28.7,17.0,25.23,WNW,283,4.0,7.0,63,0.00,,,0.00,weatherlink.com 1.10,2013-03-11 04:22:00,
2013-03-10 22:37:00,28.1,18.0,25.23,West,274,6.0,8.0,65,0.00,,,0.00,weatherlink.com 1.10,2013-03-11 04:37:00,
2013-03-10 22:52:00,27.9,18.0,25.22,WNW,284,2.0,6.0,67,0.00,,,0.00,weatherlink.com 1.10,2013-03-11 04:52:00,
2013-03-10 23:07:00,27.9,19.0,25.21,West,278,3.0,5.0,68,0.00,,,0.00,weatherlink.com 1.10,2013-03-11 05:07:00,
2013-03-10 23:22:00,28.1,19.0,25.21,West,268,3.0,6.0,70,0.00,,,0.00,weatherlink.com 1.10,2013-03-11 05:22:00,
2013-03-10 23:38:00,28.5,20.0,25.20,West,264,4.0,5.0,69,0.00,,,0.00,weatherlink.com 1.10,2013-03-11 05:38:00,
2013-03-10 23:52:00,28.7,20.0,25.20,West,269,3.0,5.0,69,0.00,,,0.00,weatherlink.com 1.10,2013-03-11 05:52:00,